createdAt,value
2023-01-29T00:01:31.532Z,0.73
2023-01-29T00:03:59.318Z,0.80
2023-01-29T00:06:28.532Z,0.80
2023-01-29T00:08:56.384Z,0.87
2023-01-29T00:11:25.651Z,0.90
2023-01-29T00:13:53.516Z,0.70
2023-01-29T00:16:21.305Z,0.70
2023-01-29T00:18:49.072Z,0.90
2023-01-29T00:21:17.845Z,0.87
2023-01-29T00:23:47.273Z,0.97
2023-01-29T00:26:15.110Z,0.80
2023-01-29T00:28:42.866Z,0.80
2023-01-29T00:31:11.348Z,0.83
2023-01-29T00:33:39.400Z,0.87
2023-01-29T00:36:08.121Z,0.80
2023-01-29T00:38:36.316Z,0.70
2023-01-29T00:41:26.512Z,0.80
2023-01-29T00:44:26.331Z,0.70
2023-01-29T00:46:54.868Z,0.80
2023-01-29T00:49:22.655Z,0.70
2023-01-29T00:52:10.758Z,0.80
2023-01-29T00:54:38.748Z,0.90
2023-01-29T00:57:07.889Z,0.77
2023-01-29T00:59:35.711Z,0.80
2023-01-29T01:02:20.945Z,0.80
2023-01-29T01:04:48.780Z,0.80
2023-01-29T01:07:16.515Z,0.70
2023-01-29T01:10:01.810Z,0.70
2023-01-29T01:12:31.129Z,0.73
2023-01-29T01:14:59.225Z,0.80
2023-01-29T01:17:27.003Z,0.80
2023-01-29T01:19:54.869Z,0.73
2023-01-29T01:22:22.813Z,0.70
2023-01-29T01:24:50.604Z,0.67
2023-01-29T01:27:19.753Z,0.90
2023-01-29T01:29:48.901Z,0.80
2023-01-29T01:32:17.083Z,0.77
2023-01-29T01:34:46.067Z,0.70
2023-01-29T01:37:13.848Z,0.70
2023-01-29T01:39:41.698Z,0.80
2023-01-29T01:42:12.980Z,0.70
2023-01-29T01:44:53.462Z,0.80
2023-01-29T01:47:23.755Z,0.83
2023-01-29T01:49:52.064Z,0.80
2023-01-29T01:52:20.615Z,0.70
2023-01-29T01:54:48.638Z,0.70
2023-01-29T01:57:18.929Z,0.80
2023-01-29T01:59:49.455Z,0.83
2023-01-29T02:02:36.592Z,0.80
2023-01-29T02:05:21.792Z,0.83
2023-01-29T02:08:07.935Z,0.87
2023-01-29T02:10:37.791Z,0.80
2023-01-29T02:13:06.402Z,0.90
2023-01-29T02:15:34.692Z,0.70
2023-01-29T02:18:03.966Z,0.90
2023-01-29T02:20:33.136Z,0.80
2023-01-29T02:23:17.540Z,0.80
2023-01-29T02:26:18.507Z,0.80
2023-01-29T02:28:49.135Z,0.80
2023-01-29T02:31:21.784Z,0.80
2023-01-29T02:33:53.395Z,0.90
2023-01-29T02:36:24.362Z,0.80
2023-01-29T02:38:55.200Z,0.90
2023-01-29T02:41:27.253Z,0.90
2023-01-29T02:44:00.295Z,0.90
2023-01-29T02:46:32.088Z,0.90
2023-01-29T02:49:03.103Z,1.03
2023-01-29T02:51:36.463Z,0.73
2023-01-29T02:54:05.945Z,1.00
2023-01-29T02:56:37.672Z,0.90
2023-01-29T02:59:09.884Z,0.70
2023-01-29T03:01:40.847Z,0.80
2023-01-29T03:04:11.754Z,0.90
2023-01-29T03:06:42.856Z,0.90
2023-01-29T03:09:11.593Z,0.97
2023-01-29T03:11:41.510Z,0.90
2023-01-29T03:14:14.484Z,0.90
2023-01-29T03:16:44.603Z,0.80
2023-01-29T03:19:16.259Z,0.97
2023-01-29T03:21:55.223Z,1.10
2023-01-29T03:24:43.627Z,1.10
2023-01-29T03:27:30.719Z,0.80
2023-01-29T03:30:18.294Z,0.80
2023-01-29T03:32:47.900Z,0.87
2023-01-29T03:35:21.108Z,1.00
2023-01-29T03:37:49.557Z,0.90
2023-01-29T03:40:19.087Z,1.10
2023-01-29T03:42:51.660Z,0.90
2023-01-29T03:45:22.677Z,1.00
2023-01-29T03:47:52.759Z,0.90
2023-01-29T03:50:30.807Z,0.80
2023-01-29T03:53:02.988Z,0.97
2023-01-29T03:55:34.626Z,0.80
2023-01-29T03:58:06.010Z,0.77
2023-01-29T04:00:38.215Z,0.90
2023-01-29T04:03:09.397Z,0.90
2023-01-29T04:05:41.271Z,0.90
2023-01-29T04:08:11.915Z,0.80
2023-01-29T04:10:40.315Z,0.90
2023-01-29T04:13:10.408Z,0.90
2023-01-29T04:15:42.260Z,0.97
2023-01-29T04:18:10.924Z,0.90
2023-01-29T04:20:39.011Z,0.80
2023-01-29T04:23:07.547Z,0.90
2023-01-29T04:25:43.908Z,0.80
2023-01-29T04:28:17.806Z,0.87
2023-01-29T04:30:49.494Z,0.90
2023-01-29T04:33:23.140Z,0.80
2023-01-29T04:36:00.192Z,0.83
2023-01-29T04:38:31.938Z,0.90
2023-01-29T04:41:03.346Z,0.80
2023-01-29T04:43:39.932Z,0.90
2023-01-29T04:46:15.125Z,0.90
2023-01-29T04:48:48.726Z,0.80
2023-01-29T04:51:21.184Z,0.90
2023-01-29T04:53:52.636Z,0.90
2023-01-29T04:56:22.420Z,0.80
2023-01-29T04:58:52.007Z,0.90
2023-01-29T05:01:22.501Z,0.60
2023-01-29T05:03:51.581Z,0.60
2023-01-29T05:06:20.125Z,0.90
2023-01-29T05:08:48.946Z,0.77
2023-01-29T05:11:17.489Z,0.80
2023-01-29T05:13:45.629Z,0.80
2023-01-29T05:16:15.832Z,0.90
2023-01-29T05:18:45.115Z,0.87
2023-01-29T05:21:13.025Z,0.77
2023-01-29T05:23:53.161Z,0.90
2023-01-29T05:26:38.715Z,0.70
2023-01-29T05:29:06.621Z,0.90
2023-01-29T05:31:34.377Z,0.70
2023-01-29T05:34:03.588Z,0.80
2023-01-29T05:36:31.420Z,0.80
2023-01-29T05:38:59.140Z,0.80
2023-01-29T05:41:26.892Z,0.90
2023-01-29T05:43:54.687Z,0.80
2023-01-29T05:46:22.461Z,0.73
2023-01-29T05:48:50.275Z,0.80
2023-01-29T05:51:19.361Z,0.90
2023-01-29T05:53:47.106Z,0.73
2023-01-29T05:56:14.855Z,0.80
2023-01-29T05:58:42.553Z,0.70
2023-01-29T06:01:11.095Z,0.90
2023-01-29T06:03:38.890Z,0.50
2023-01-29T06:06:06.866Z,0.70
2023-01-29T06:08:36.060Z,0.70
2023-01-29T06:11:03.959Z,0.70
2023-01-29T06:13:31.764Z,0.50
2023-01-29T06:15:59.635Z,0.70
2023-01-29T06:18:27.472Z,0.70
2023-01-29T06:20:55.245Z,0.80
2023-01-29T06:23:23.014Z,0.80
2023-01-29T06:25:52.176Z,0.60
2023-01-29T06:28:19.933Z,0.80
2023-01-29T06:30:47.649Z,0.70
2023-01-29T06:33:15.427Z,0.60
2023-01-29T06:35:43.135Z,0.63
2023-01-29T06:38:10.852Z,0.70
2023-01-29T06:40:39.551Z,0.60
2023-01-29T06:43:08.610Z,0.70
2023-01-29T06:45:36.438Z,0.70
2023-01-29T06:48:04.232Z,0.60
2023-01-29T06:50:31.922Z,0.80
2023-01-29T06:53:00.293Z,0.70
2023-01-29T06:55:28.023Z,0.70
2023-01-29T06:57:55.822Z,0.60
2023-01-29T07:00:25.132Z,0.70
2023-01-29T07:02:53.045Z,0.77
2023-01-29T07:05:20.835Z,0.60
2023-01-29T07:07:48.635Z,0.70
2023-01-29T07:10:16.985Z,0.53
2023-01-29T07:12:44.862Z,0.60
2023-01-29T07:15:13.039Z,0.60
2023-01-29T07:17:42.181Z,0.70
2023-01-29T07:20:10.536Z,0.50
2023-01-29T07:22:38.346Z,0.60
2023-01-29T07:25:06.701Z,0.53
2023-01-29T07:27:34.452Z,0.70
2023-01-29T07:30:02.166Z,0.60
2023-01-29T07:32:29.923Z,0.50
2023-01-29T07:34:59.078Z,0.60
2023-01-29T07:37:26.834Z,0.60
2023-01-29T07:39:54.603Z,0.50
2023-01-29T07:42:22.334Z,0.60
2023-01-29T07:44:50.104Z,0.60
2023-01-29T07:47:17.839Z,0.60
2023-01-29T07:49:45.591Z,0.50
2023-01-29T07:52:14.789Z,0.60
2023-01-29T07:54:42.550Z,0.50
2023-01-29T07:57:10.321Z,0.50
2023-01-29T07:59:38.039Z,0.60
2023-01-29T08:02:05.931Z,0.50
2023-01-29T08:04:33.701Z,0.40
2023-01-29T08:07:01.512Z,0.40
2023-01-29T08:09:30.770Z,0.40
2023-01-29T08:11:58.704Z,0.40
2023-01-29T08:14:26.551Z,0.50
2023-01-29T08:16:54.274Z,0.40
2023-01-29T08:19:22.078Z,0.40
2023-01-29T08:21:49.883Z,0.40
2023-01-29T08:24:17.835Z,0.43
2023-01-29T08:26:47.106Z,0.40
2023-01-29T08:29:15.051Z,0.40
2023-01-29T08:31:42.913Z,0.40
2023-01-29T08:34:10.740Z,0.40
2023-01-29T08:36:38.471Z,0.40
2023-01-29T08:39:06.290Z,0.30
2023-01-29T08:41:34.121Z,0.40
2023-01-29T08:44:04.511Z,0.40
2023-01-29T08:46:32.622Z,0.30
2023-01-29T08:49:00.375Z,0.27
2023-01-29T08:51:28.151Z,0.30
2023-01-29T08:53:55.954Z,0.20
2023-01-29T08:56:23.859Z,0.30
2023-01-29T08:58:51.676Z,0.30
2023-01-29T09:01:21.068Z,0.30
2023-01-29T09:03:50.202Z,0.20
2023-01-29T09:06:18.037Z,0.30
2023-01-29T09:08:45.788Z,0.30
2023-01-29T09:11:13.479Z,0.30
2023-01-29T09:13:41.197Z,0.30
2023-01-29T09:16:09.197Z,0.30
2023-01-29T09:18:38.437Z,0.20
2023-01-29T09:21:06.601Z,0.30
2023-01-29T09:23:34.616Z,0.30
2023-01-29T09:26:02.410Z,0.20
2023-01-29T09:28:30.140Z,0.30
2023-01-29T09:30:57.998Z,0.30
2023-01-29T09:33:26.236Z,0.30
2023-01-29T09:35:55.456Z,0.20
2023-01-29T09:38:23.245Z,0.30
2023-01-29T09:40:59.324Z,0.27
2023-01-29T09:43:29.976Z,0.20
2023-01-29T09:45:59.571Z,0.20
2023-01-29T09:48:28.913Z,0.30
2023-01-29T09:51:00.133Z,0.20
2023-01-29T09:53:32.659Z,0.20
2023-01-29T09:56:02.432Z,0.20
2023-01-29T09:58:32.688Z,0.20
2023-01-29T10:01:06.722Z,0.10
2023-01-29T10:03:49.485Z,0.20
2023-01-29T10:06:24.641Z,0.20
2023-01-29T10:09:05.033Z,0.20
2023-01-29T10:11:37.311Z,0.20
2023-01-29T10:14:10.850Z,0.20
2023-01-29T10:16:45.472Z,0.20
2023-01-29T10:19:28.077Z,0.20
2023-01-29T10:22:09.467Z,0.10
2023-01-29T10:24:39.214Z,0.40
2023-01-29T10:27:13.966Z,0.50
2023-01-29T10:29:42.827Z,0.50
2023-01-29T10:32:15.251Z,0.50
2023-01-29T10:34:45.356Z,0.50
2023-01-29T10:37:16.836Z,0.40
2023-01-29T10:39:44.589Z,0.40
2023-01-29T10:42:25.736Z,0.50
2023-01-29T10:45:08.237Z,0.40
2023-01-29T10:47:50.873Z,0.40
2023-01-29T10:50:22.347Z,0.30
2023-01-29T10:53:03.756Z,0.40
2023-01-29T10:55:38.651Z,0.30
2023-01-29T10:58:10.498Z,0.30
2023-01-29T11:00:39.229Z,0.50
2023-01-29T11:03:26.957Z,0.50
2023-01-29T11:05:57.921Z,0.50
2023-01-29T11:08:29.977Z,0.40
2023-01-29T11:11:02.644Z,0.20
2023-01-29T11:13:32.883Z,0.30
2023-01-29T11:16:00.697Z,0.20
2023-01-29T11:18:28.468Z,0.20
2023-01-29T11:21:01.673Z,0.20
2023-01-29T11:23:31.536Z,0.10
2023-01-29T11:25:59.887Z,0.10
2023-01-29T11:28:37.291Z,0.20
2023-01-29T11:31:05.324Z,0.10
2023-01-29T11:33:33.131Z,0.10
2023-01-29T11:36:01.495Z,0.10
2023-01-29T11:38:30.913Z,0.10
2023-01-29T11:41:06.259Z,0.10
2023-01-29T11:43:34.592Z,0.10
2023-01-29T11:46:03.473Z,0.10
2023-01-29T11:48:34.151Z,0.10
2023-01-29T11:51:02.146Z,0.10
2023-01-29T11:53:37.793Z,0.10
2023-01-29T11:56:08.417Z,0.20
2023-01-29T11:58:36.590Z,0.10
2023-01-29T12:01:04.947Z,0.10
2023-01-29T12:03:35.661Z,0.20
2023-01-29T12:06:05.267Z,0.10
2023-01-29T12:08:34.969Z,0.20
2023-01-29T12:11:10.820Z,0.10
2023-01-29T12:13:39.099Z,0.20
2023-01-29T12:16:12.738Z,0.20
2023-01-29T12:18:42.519Z,0.20
2023-01-29T12:21:13.612Z,0.10
2023-01-29T12:23:42.946Z,0.20
2023-01-29T12:26:16.111Z,0.20
2023-01-29T12:28:49.502Z,0.20
2023-01-29T12:31:23.070Z,0.20
2023-01-29T12:33:53.775Z,0.20
2023-01-29T12:36:24.600Z,0.20
2023-01-29T12:38:52.406Z,0.30
2023-01-29T12:41:34.972Z,0.40
2023-01-29T12:44:06.881Z,0.40
2023-01-29T12:46:38.438Z,0.50
2023-01-29T12:49:08.644Z,0.40
2023-01-29T12:51:38.945Z,0.40
2023-01-29T12:54:08.819Z,0.40
2023-01-29T12:56:38.102Z,0.40
2023-01-29T12:59:13.020Z,0.40
2023-01-29T13:01:44.387Z,0.40
2023-01-29T13:04:14.810Z,0.30
2023-01-29T13:06:43.764Z,0.40
2023-01-29T13:09:15.058Z,0.40
2023-01-29T13:11:46.849Z,0.40
2023-01-29T13:14:20.699Z,0.40
2023-01-29T13:16:50.444Z,0.40
2023-01-29T13:19:24.102Z,0.40
2023-01-29T13:21:52.831Z,0.40
2023-01-29T13:24:22.430Z,0.47
2023-01-29T13:26:50.527Z,0.50
2023-01-29T13:29:24.225Z,0.40
2023-01-29T13:31:52.976Z,0.40
2023-01-29T13:34:22.881Z,0.37
2023-01-29T13:36:52.724Z,0.30
2023-01-29T13:39:24.104Z,0.30
2023-01-29T13:41:52.560Z,0.20
2023-01-29T13:44:22.209Z,0.20
2023-01-29T13:46:53.188Z,0.20
2023-01-29T13:49:29.871Z,0.20
2023-01-29T13:51:58.137Z,0.20
2023-01-29T13:54:26.991Z,0.20
2023-01-29T13:56:59.357Z,0.20
2023-01-29T13:59:41.942Z,0.20
2023-01-29T14:02:27.541Z,0.10
2023-01-29T14:05:10.099Z,0.20
2023-01-29T14:07:50.035Z,0.13
2023-01-29T14:10:19.936Z,0.20
2023-01-29T14:12:51.759Z,0.20
2023-01-29T14:15:29.897Z,0.17
2023-01-29T14:18:05.188Z,0.20
2023-01-29T14:20:45.030Z,0.20
2023-01-29T14:23:22.501Z,0.20
2023-01-29T14:25:50.428Z,0.20
2023-01-29T14:28:25.057Z,0.20
2023-01-29T14:30:53.627Z,0.20
2023-01-29T14:33:33.083Z,0.20
2023-01-29T14:36:04.568Z,0.20
2023-01-29T14:38:33.106Z,0.13
2023-01-29T14:41:05.675Z,0.30
2023-01-29T14:43:33.654Z,0.20
2023-01-29T14:46:16.227Z,0.30
2023-01-29T14:48:49.612Z,0.20
2023-01-29T14:51:18.138Z,0.20
2023-01-29T14:53:49.799Z,0.27
2023-01-29T14:56:19.905Z,0.30
2023-01-29T14:58:49.043Z,0.20
2023-01-29T15:01:19.136Z,0.20
2023-01-29T15:03:50.010Z,0.23
2023-01-29T15:06:20.025Z,0.20
2023-01-29T15:08:50.493Z,0.30
2023-01-29T15:11:37.414Z,0.20
2023-01-29T15:14:16.770Z,0.27
2023-01-29T15:16:49.049Z,0.20
2023-01-29T15:19:22.273Z,0.20
2023-01-29T15:22:08.894Z,0.30
2023-01-29T15:24:37.355Z,0.20
2023-01-29T15:27:05.573Z,0.20
2023-01-29T15:29:33.390Z,0.20
2023-01-29T15:32:02.097Z,0.20
2023-01-29T15:34:31.672Z,0.20
2023-01-29T15:36:59.517Z,0.20
2023-01-29T15:39:28.445Z,0.20
2023-01-29T15:42:15.752Z,0.20
2023-01-29T15:44:47.351Z,0.20
2023-01-29T15:47:15.986Z,0.20
2023-01-29T15:49:47.368Z,0.20
2023-01-29T15:52:17.891Z,0.20
2023-01-29T15:54:45.795Z,0.20
2023-01-29T15:57:19.810Z,0.30
2023-01-29T15:59:51.781Z,0.30
2023-01-29T16:02:20.211Z,0.30
2023-01-29T16:04:49.456Z,0.30
2023-01-29T16:07:17.349Z,0.30
2023-01-29T16:09:45.310Z,0.30
2023-01-29T16:12:14.620Z,0.20
2023-01-29T16:14:42.739Z,0.20
2023-01-29T16:17:23.880Z,0.20
2023-01-29T16:20:00.400Z,0.30
2023-01-29T16:22:30.665Z,0.30
2023-01-29T16:24:59.384Z,0.30
2023-01-29T16:27:29.993Z,0.30
2023-01-29T16:29:57.883Z,0.30
2023-01-29T16:32:25.811Z,0.30
2023-01-29T16:34:57.458Z,0.30
2023-01-29T16:37:27.708Z,0.40
2023-01-29T16:39:55.761Z,0.30
2023-01-29T16:42:27.550Z,0.30
2023-01-29T16:44:59.214Z,0.30
2023-01-29T16:47:29.599Z,0.30
2023-01-29T16:49:58.412Z,0.30
2023-01-29T16:52:29.195Z,0.20
2023-01-29T16:55:00.604Z,0.40
2023-01-29T16:57:31.211Z,0.30
2023-01-29T17:00:01.332Z,0.40
2023-01-29T17:02:30.344Z,0.30
2023-01-29T17:04:59.697Z,0.30
2023-01-29T17:07:29.477Z,0.40
2023-01-29T17:09:59.877Z,0.40
2023-01-29T17:12:28.440Z,0.40
2023-01-29T17:14:57.676Z,0.30
2023-01-29T17:17:30.166Z,0.30
2023-01-29T17:19:58.323Z,0.30
2023-01-29T17:22:26.171Z,0.30
2023-01-29T17:24:55.454Z,0.40
2023-01-29T17:27:23.922Z,0.40
2023-01-29T17:29:52.771Z,0.30
2023-01-29T17:32:21.338Z,0.30
2023-01-29T17:34:49.240Z,0.37
2023-01-29T17:37:17.544Z,0.30
2023-01-29T17:39:45.339Z,0.40
2023-01-29T17:42:15.429Z,0.30
2023-01-29T17:44:43.531Z,0.30
2023-01-29T17:47:13.668Z,0.30
2023-01-29T17:49:41.661Z,0.40
2023-01-29T17:52:09.857Z,0.40
2023-01-29T17:54:37.829Z,0.40
2023-01-29T17:57:05.624Z,0.40
2023-01-29T17:59:35.297Z,0.40
2023-01-29T18:02:03.164Z,0.30
2023-01-29T18:04:30.932Z,0.40
2023-01-29T18:06:59.183Z,0.33
2023-01-29T18:09:27.983Z,0.37
2023-01-29T18:11:55.763Z,0.40
2023-01-29T18:14:23.500Z,0.40
2023-01-29T18:16:52.679Z,0.40
2023-01-29T18:19:22.212Z,0.30
2023-01-29T18:21:50.097Z,0.47
2023-01-29T18:24:17.853Z,0.40
2023-01-29T18:26:46.006Z,0.40
2023-01-29T18:29:13.870Z,0.37
2023-01-29T18:31:41.671Z,0.40
2023-01-29T18:34:10.812Z,0.40
2023-01-29T18:36:38.514Z,0.40
2023-01-29T18:39:06.353Z,0.40
2023-01-29T18:41:34.773Z,0.50
2023-01-29T18:44:02.561Z,0.40
2023-01-29T18:46:30.327Z,0.30
2023-01-29T18:48:58.102Z,0.40
2023-01-29T18:51:27.323Z,0.37
2023-01-29T18:53:55.085Z,0.40
2023-01-29T18:56:22.826Z,0.40
2023-01-29T18:58:53.000Z,0.40
2023-01-29T19:01:24.159Z,0.40
2023-01-29T19:03:52.166Z,0.40
2023-01-29T19:06:19.991Z,0.40
2023-01-29T19:08:49.203Z,0.50
2023-01-29T19:11:16.953Z,0.40
2023-01-29T19:13:44.745Z,0.40
2023-01-29T19:16:13.598Z,0.40
2023-01-29T19:18:41.405Z,0.40
2023-01-29T19:21:10.628Z,0.40
2023-01-29T19:23:38.582Z,0.40
2023-01-29T19:26:07.791Z,0.40
2023-01-29T19:28:35.918Z,0.40
2023-01-29T19:31:03.934Z,0.30
2023-01-29T19:33:31.772Z,0.33
2023-01-29T19:35:59.737Z,0.30
2023-01-29T19:38:27.632Z,0.40
2023-01-29T19:40:56.326Z,0.40
2023-01-29T19:43:25.488Z,0.40
2023-01-29T19:45:58.439Z,0.40
2023-01-29T19:48:26.605Z,0.40
2023-01-29T19:50:55.003Z,0.40
2023-01-29T19:53:23.226Z,0.40
2023-01-29T19:55:58.061Z,0.37
2023-01-29T19:58:30.260Z,0.40
2023-01-29T20:00:58.594Z,0.33
2023-01-29T20:03:26.941Z,0.30
2023-01-29T20:05:54.772Z,0.43
2023-01-29T20:08:23.888Z,0.50
2023-01-29T20:10:51.682Z,0.40
2023-01-29T20:13:19.536Z,0.40
2023-01-29T20:15:49.348Z,0.40
2023-01-29T20:18:17.558Z,0.37
2023-01-29T20:20:46.849Z,0.30
2023-01-29T20:23:16.725Z,0.30
2023-01-29T20:25:48.155Z,0.30
2023-01-29T20:28:16.498Z,0.40
2023-01-29T20:30:44.759Z,0.30
2023-01-29T20:33:14.092Z,0.40
2023-01-29T20:35:41.827Z,0.30
2023-01-29T20:38:09.528Z,0.30
2023-01-29T20:40:37.349Z,0.30
2023-01-29T20:43:05.067Z,0.40
2023-01-29T20:45:33.371Z,0.30
2023-01-29T20:48:01.102Z,0.30
2023-01-29T20:50:30.224Z,0.30
2023-01-29T20:52:58.011Z,0.30
2023-01-29T20:55:25.809Z,0.40
2023-01-29T20:58:05.645Z,0.30
2023-01-29T21:00:34.463Z,0.30
2023-01-29T21:03:02.258Z,0.30
2023-01-29T21:05:31.328Z,0.40
2023-01-29T21:07:59.073Z,0.30
2023-01-29T21:10:26.849Z,0.30
2023-01-29T21:12:54.796Z,0.30
2023-01-29T21:15:23.446Z,0.30
2023-01-29T21:17:52.441Z,0.30
2023-01-29T21:20:20.613Z,0.30
2023-01-29T21:22:49.758Z,0.30
2023-01-29T21:25:20.249Z,0.40
2023-01-29T21:27:48.283Z,0.40
2023-01-29T21:30:16.636Z,0.40
2023-01-29T21:32:44.645Z,0.30
2023-01-29T21:35:12.353Z,0.40
2023-01-29T21:37:40.055Z,0.40
2023-01-29T21:40:10.426Z,0.40
2023-01-29T21:42:55.287Z,0.40
2023-01-29T21:45:22.976Z,0.37
2023-01-29T21:47:50.714Z,0.40
2023-01-29T21:50:18.826Z,0.30
2023-01-29T21:52:46.677Z,0.30
2023-01-29T21:55:15.927Z,0.30
2023-01-29T21:57:44.586Z,0.30
2023-01-29T22:00:13.094Z,0.40
2023-01-29T22:02:46.783Z,0.33
2023-01-29T22:05:20.214Z,0.30
2023-01-29T22:07:48.449Z,0.30
2023-01-29T22:10:18.856Z,0.30
2023-01-29T22:12:47.248Z,0.40
2023-01-29T22:15:15.675Z,0.30
2023-01-29T22:17:43.899Z,0.30
2023-01-29T22:20:12.371Z,0.37
2023-01-29T22:22:40.163Z,0.30
2023-01-29T22:25:08.208Z,0.30
2023-01-29T22:27:37.364Z,0.30
2023-01-29T22:30:05.438Z,0.30
2023-01-29T22:32:33.547Z,0.30
2023-01-29T22:35:01.259Z,0.30
2023-01-29T22:37:30.126Z,0.30
2023-01-29T22:39:57.871Z,0.30
2023-01-29T22:42:25.558Z,0.20
2023-01-29T22:44:54.668Z,0.30
2023-01-29T22:47:22.385Z,0.20
2023-01-29T22:49:52.386Z,0.30
2023-01-29T22:52:21.851Z,0.27
2023-01-29T22:54:51.347Z,0.20
2023-01-29T22:57:19.376Z,0.30
2023-01-29T22:59:47.211Z,0.20
2023-01-29T23:02:16.328Z,0.20
2023-01-29T23:04:44.081Z,0.30
2023-01-29T23:07:11.816Z,0.30
2023-01-29T23:09:39.479Z,0.20
2023-01-29T23:12:07.950Z,0.20
2023-01-29T23:14:35.665Z,0.20
2023-01-29T23:17:03.351Z,0.20
2023-01-29T23:19:32.453Z,0.23
2023-01-29T23:22:00.200Z,0.20
2023-01-29T23:24:27.930Z,0.27
2023-01-29T23:27:12.880Z,0.20
2023-01-29T23:29:40.534Z,0.20
2023-01-29T23:32:08.303Z,0.20
2023-01-29T23:34:37.398Z,0.20
2023-01-29T23:37:05.215Z,0.20
2023-01-29T23:39:32.984Z,0.30
2023-01-29T23:42:00.849Z,0.30
2023-01-29T23:44:28.824Z,0.20
2023-01-29T23:46:56.677Z,0.20
2023-01-29T23:49:24.541Z,0.30
2023-01-29T23:51:53.643Z,0.30
2023-01-29T23:54:21.305Z,0.30
2023-01-29T23:56:49.184Z,0.20
2023-01-29T23:59:16.939Z,0.20
